SWA1223 KHOU-KOKC
Flight info
| Callsign | SWA1223 |
|---|---|
| Flight time | 1h 11m |
| Altitude | 30000 |
| Route | STYCK8 DOLEY ADM TSDEL TSDEL3 |
| Aircraft | B38M/M-SDE1FGHILORVWXY/HB1 |
Departure
| Time | 2026-04-26 18:45 |
|---|---|
| Airport | William P. Hobby Airport (KHOU) |
Arrival
| Time | 2026-04-26 19:56 |
|---|---|
| Airport | OKC Will Rogers World Airport (KOKC) |
| Time | Latitude | Longitude | Altitude | Speed | Heading |
|---|---|---|---|---|---|
| 2026-04-26 18:00 | 29.65220 | -95.27741 | 54 ft | 0 kts | 349° |
| 2026-04-26 18:03 | 29.65222 | -95.27730 | 54 ft | 0 kts | 349° |
| 2026-04-26 18:03 | 29.65216 | -95.27735 | 54 ft | 0 kts | 349° |
| 2026-04-26 18:32 | 29.65213 | -95.27734 | 54 ft | 3 kts | 349° |
| 2026-04-26 18:33 | 29.65195 | -95.27730 | 46 ft | 3 kts | 349° |
| 2026-04-26 18:33 | 29.65177 | -95.27726 | 52 ft | 3 kts | 349° |
| 2026-04-26 18:33 | 29.65160 | -95.27721 | 47 ft | 3 kts | 309° |
| 2026-04-26 18:33 | 29.65154 | -95.27708 | 53 ft | 0 kts | 273° |
| 2026-04-26 18:40 | 29.65147 | -95.27719 | 50 ft | 4 kts | 224° |
| 2026-04-26 18:41 | 29.65112 | -95.27688 | 50 ft | 10 kts | 126° |
| 2026-04-26 18:41 | 29.65100 | -95.27602 | 51 ft | 15 kts | 89° |
| 2026-04-26 18:41 | 29.65106 | -95.27469 | 53 ft | 18 kts | 84° |
| 2026-04-26 18:41 | 29.65158 | -95.27340 | 51 ft | 19 kts | 46° |
| 2026-04-26 18:42 | 29.65260 | -95.27225 | 52 ft | 22 kts | 45° |
| 2026-04-26 18:42 | 29.65370 | -95.27101 | 52 ft | 23 kts | 43° |
| 2026-04-26 18:42 | 29.65459 | -95.27001 | 52 ft | 10 kts | 52° |
| 2026-04-26 18:42 | 29.65470 | -95.26977 | 52 ft | 0 kts | 75° |
| 2026-04-26 18:43 | 29.65470 | -95.26972 | 52 ft | 3 kts | 82° |
| 2026-04-26 18:43 | 29.65432 | -95.26916 | 52 ft | 14 kts | 146° |
| 2026-04-26 18:44 | 29.65319 | -95.26977 | 51 ft | 31 kts | 223° |
| 2026-04-26 18:44 | 29.64968 | -95.27363 | 52 ft | 108 kts | 223° |
| 2026-04-26 18:44 | 29.64273 | -95.28128 | 64 ft | 162 kts | 223° |
| 2026-04-26 18:44 | 29.63445 | -95.29099 | 315 ft | 173 kts | 223° |
| 2026-04-26 18:45 | 29.62384 | -95.29723 | 770 ft | 171 kts | 194° |
| 2026-04-26 18:45 | 29.61288 | -95.29541 | 1309 ft | 159 kts | 153° |
| 2026-04-26 18:45 | 29.60527 | -95.28585 | 1767 ft | 169 kts | 123° |
| 2026-04-26 18:45 | 29.60351 | -95.27274 | 2401 ft | 174 kts | 92° |
| 2026-04-26 18:46 | 29.60853 | -95.25916 | 2791 ft | 199 kts | 63° |
| 2026-04-26 18:46 | 29.61949 | -95.24902 | 3379 ft | 207 kts | 29° |
| 2026-04-26 18:46 | 29.63358 | -95.24578 | 3947 ft | 213 kts | 358° |
| 2026-04-26 18:46 | 29.64774 | -95.25077 | 4500 ft | 214 kts | 334° |
| 2026-04-26 18:47 | 29.66093 | -95.25868 | 5074 ft | 215 kts | 332° |
| 2026-04-26 18:47 | 29.67420 | -95.26667 | 5680 ft | 218 kts | 332° |
| 2026-04-26 18:47 | 29.68878 | -95.27484 | 6165 ft | 245 kts | 334° |
| 2026-04-26 18:47 | 29.70439 | -95.28367 | 7017 ft | 251 kts | 331° |
| 2026-04-26 18:48 | 29.72047 | -95.29155 | 7956 ft | 262 kts | 340° |
| 2026-04-26 18:48 | 29.73906 | -95.29965 | 8050 ft | 294 kts | 338° |
| 2026-04-26 18:48 | 29.75762 | -95.30778 | 8354 ft | 289 kts | 338° |
| 2026-04-26 18:48 | 29.77621 | -95.31600 | 8686 ft | 282 kts | 335° |
| 2026-04-26 18:49 | 29.79473 | -95.32434 | 9032 ft | 284 kts | 335° |
| 2026-04-26 18:49 | 29.81327 | -95.33244 | 9397 ft | 287 kts | 336° |
| 2026-04-26 18:49 | 29.83199 | -95.34056 | 9769 ft | 288 kts | 336° |
| 2026-04-26 18:49 | 29.85078 | -95.34884 | 10107 ft | 288 kts | 336° |
| 2026-04-26 18:50 | 29.86950 | -95.35712 | 10461 ft | 289 kts | 336° |
| 2026-04-26 18:50 | 29.88821 | -95.36536 | 10805 ft | 288 kts | 336° |
| 2026-04-26 18:50 | 29.90699 | -95.37359 | 11159 ft | 288 kts | 336° |
| 2026-04-26 18:50 | 29.92563 | -95.38176 | 11521 ft | 288 kts | 336° |
| 2026-04-26 18:51 | 29.94443 | -95.39006 | 11876 ft | 288 kts | 336° |
| 2026-04-26 18:51 | 29.96314 | -95.39831 | 12241 ft | 288 kts | 336° |
| 2026-04-26 18:51 | 29.98164 | -95.40646 | 12602 ft | 289 kts | 336° |
| 2026-04-26 18:51 | 30.00045 | -95.41475 | 12987 ft | 289 kts | 335° |
| 2026-04-26 18:52 | 30.01922 | -95.42302 | 13367 ft | 289 kts | 336° |
| 2026-04-26 18:52 | 30.03798 | -95.43130 | 13750 ft | 289 kts | 335° |
| 2026-04-26 18:52 | 30.05676 | -95.43959 | 14083 ft | 289 kts | 335° |
| 2026-04-26 18:52 | 30.07560 | -95.44791 | 14429 ft | 290 kts | 335° |
| 2026-04-26 18:53 | 30.09444 | -95.45622 | 14780 ft | 290 kts | 335° |
| 2026-04-26 18:53 | 30.11330 | -95.46456 | 15131 ft | 291 kts | 335° |
| 2026-04-26 18:53 | 30.13221 | -95.47291 | 15491 ft | 292 kts | 335° |
| 2026-04-26 18:53 | 30.15122 | -95.48133 | 15854 ft | 293 kts | 335° |
| 2026-04-26 18:54 | 30.17004 | -95.48965 | 16212 ft | 293 kts | 335° |
| 2026-04-26 18:54 | 30.18912 | -95.49809 | 16591 ft | 294 kts | 335° |
| 2026-04-26 18:54 | 30.20855 | -95.50670 | 16964 ft | 296 kts | 334° |
| 2026-04-26 18:54 | 30.22751 | -95.51509 | 17334 ft | 296 kts | 334° |
| 2026-04-26 18:55 | 30.24678 | -95.52363 | 17721 ft | 297 kts | 334° |
| 2026-04-26 18:55 | 30.26610 | -95.53220 | 18123 ft | 298 kts | 334° |
| 2026-04-26 18:55 | 30.28551 | -95.54081 | 18479 ft | 299 kts | 334° |
| 2026-04-26 18:55 | 30.30494 | -95.54943 | 18822 ft | 300 kts | 334° |
| 2026-04-26 18:56 | 30.32450 | -95.55811 | 19168 ft | 302 kts | 334° |
| 2026-04-26 18:56 | 30.34413 | -95.56682 | 19516 ft | 303 kts | 334° |
| 2026-04-26 18:56 | 30.36382 | -95.57557 | 19869 ft | 304 kts | 334° |
| 2026-04-26 18:56 | 30.38374 | -95.58444 | 20231 ft | 311 kts | 334° |
| 2026-04-26 18:57 | 30.40433 | -95.59363 | 20616 ft | 323 kts | 334° |
| 2026-04-26 18:57 | 30.41841 | -95.59990 | 20871 ft | 330 kts | 334° |
| 2026-04-26 18:57 | 30.44739 | -95.61277 | 21398 ft | 343 kts | 334° |
| 2026-04-26 18:57 | 30.46997 | -95.62282 | 21814 ft | 352 kts | 334° |
| 2026-04-26 18:58 | 30.49295 | -95.63304 | 22217 ft | 355 kts | 334° |
| 2026-04-26 18:58 | 30.51608 | -95.64334 | 22572 ft | 358 kts | 334° |
| 2026-04-26 18:58 | 30.53928 | -95.65401 | 22975 ft | 358 kts | 330° |
| 2026-04-26 18:58 | 30.56194 | -95.66614 | 23384 ft | 360 kts | 330° |
| 2026-04-26 18:59 | 30.58476 | -95.67840 | 23728 ft | 362 kts | 330° |
| 2026-04-26 18:59 | 30.60766 | -95.69060 | 24065 ft | 363 kts | 330° |
| 2026-04-26 18:59 | 30.63064 | -95.70283 | 24452 ft | 364 kts | 330° |
| 2026-04-26 18:59 | 30.65366 | -95.71513 | 24795 ft | 365 kts | 329° |
| 2026-04-26 19:00 | 30.67678 | -95.72753 | 25142 ft | 367 kts | 329° |
| 2026-04-26 19:00 | 30.70002 | -95.73997 | 25498 ft | 368 kts | 329° |
| 2026-04-26 19:00 | 30.72323 | -95.75237 | 25849 ft | 369 kts | 329° |
| 2026-04-26 19:00 | 30.74633 | -95.76474 | 26200 ft | 370 kts | 329° |
| 2026-04-26 19:01 | 30.76974 | -95.77729 | 26557 ft | 372 kts | 329° |
| 2026-04-26 19:01 | 30.79333 | -95.78995 | 26926 ft | 374 kts | 329° |
| 2026-04-26 19:01 | 30.81703 | -95.80265 | 27301 ft | 376 kts | 329° |
| 2026-04-26 19:01 | 30.84082 | -95.81541 | 27719 ft | 377 kts | 329° |
| 2026-04-26 19:02 | 30.86460 | -95.82818 | 28104 ft | 378 kts | 328° |
| 2026-04-26 19:02 | 30.88854 | -95.84106 | 28497 ft | 379 kts | 328° |
| 2026-04-26 19:02 | 30.91255 | -95.85396 | 28889 ft | 381 kts | 328° |
| 2026-04-26 19:02 | 30.92849 | -95.86254 | 29153 ft | 382 kts | 328° |
| 2026-04-26 19:03 | 30.96093 | -95.87999 | 29693 ft | 385 kts | 328° |
| 2026-04-26 19:03 | 30.98541 | -95.89319 | 29902 ft | 390 kts | 328° |
| 2026-04-26 19:03 | 31.03434 | -95.91952 | 29890 ft | 387 kts | 328° |
| 2026-04-26 19:04 | 31.08288 | -95.94574 | 29883 ft | 388 kts | 328° |
| 2026-04-26 19:04 | 31.13229 | -95.97123 | 29884 ft | 391 kts | 334° |
| 2026-04-26 19:05 | 31.20995 | -96.00122 | 29879 ft | 392 kts | 334° |
| 2026-04-26 19:06 | 31.26175 | -96.02128 | 29887 ft | 392 kts | 334° |
| 2026-04-26 19:06 | 31.31315 | -96.04122 | 29893 ft | 392 kts | 334° |
| 2026-04-26 19:07 | 31.36598 | -96.06185 | 29896 ft | 413 kts | 334° |
| 2026-04-26 19:07 | 31.39369 | -96.07262 | 29901 ft | 426 kts | 335° |
| 2026-04-26 19:07 | 31.42228 | -96.08369 | 29898 ft | 439 kts | 335° |
| 2026-04-26 19:08 | 31.48089 | -96.10648 | 29890 ft | 450 kts | 334° |
| 2026-04-26 19:08 | 31.53992 | -96.12948 | 29895 ft | 450 kts | 334° |
| 2026-04-26 19:09 | 31.59926 | -96.15266 | 29892 ft | 450 kts | 334° |
| 2026-04-26 19:09 | 31.65873 | -96.17591 | 29899 ft | 452 kts | 335° |
| 2026-04-26 19:10 | 31.71918 | -96.19960 | 29894 ft | 459 kts | 335° |
| 2026-04-26 19:10 | 31.77943 | -96.22318 | 29889 ft | 459 kts | 335° |
| 2026-04-26 19:11 | 31.83998 | -96.24699 | 29885 ft | 460 kts | 335° |
| 2026-04-26 19:11 | 31.90063 | -96.27081 | 29882 ft | 459 kts | 335° |
| 2026-04-26 19:12 | 31.96109 | -96.29461 | 29871 ft | 457 kts | 334° |
| 2026-04-26 19:12 | 32.02150 | -96.31844 | 29873 ft | 458 kts | 334° |
| 2026-04-26 19:13 | 32.08150 | -96.34212 | 29877 ft | 458 kts | 334° |
| 2026-04-26 19:13 | 32.14185 | -96.36599 | 29878 ft | 458 kts | 334° |
| 2026-04-26 19:14 | 32.20222 | -96.38985 | 29881 ft | 456 kts | 333° |
| 2026-04-26 19:14 | 32.26265 | -96.41247 | 29870 ft | 456 kts | 334° |
| 2026-04-26 19:15 | 32.32292 | -96.43538 | 29868 ft | 455 kts | 334° |
| 2026-04-26 19:15 | 32.38329 | -96.45832 | 29864 ft | 456 kts | 334° |
| 2026-04-26 19:16 | 32.44358 | -96.48122 | 29859 ft | 458 kts | 334° |
| 2026-04-26 19:16 | 32.50445 | -96.50440 | 29853 ft | 460 kts | 334° |
| 2026-04-26 19:17 | 32.56534 | -96.52759 | 29850 ft | 460 kts | 334° |
| 2026-04-26 19:17 | 32.62628 | -96.55088 | 29853 ft | 460 kts | 334° |
| 2026-04-26 19:18 | 32.68729 | -96.57419 | 29845 ft | 460 kts | 334° |
| 2026-04-26 19:18 | 32.74786 | -96.59739 | 29846 ft | 460 kts | 333° |
| 2026-04-26 19:19 | 32.80872 | -96.62072 | 29844 ft | 460 kts | 333° |
| 2026-04-26 19:19 | 32.86969 | -96.64414 | 29844 ft | 460 kts | 333° |
| 2026-04-26 19:20 | 32.93064 | -96.66757 | 29852 ft | 461 kts | 333° |
| 2026-04-26 19:20 | 32.99152 | -96.69101 | 29862 ft | 460 kts | 333° |
| 2026-04-26 19:21 | 33.05189 | -96.71429 | 29839 ft | 459 kts | 333° |
| 2026-04-26 19:21 | 33.11257 | -96.73774 | 29841 ft | 459 kts | 333° |
| 2026-04-26 19:22 | 33.17342 | -96.76127 | 29840 ft | 460 kts | 333° |
| 2026-04-26 19:22 | 33.23417 | -96.78480 | 29835 ft | 459 kts | 333° |
| 2026-04-26 19:23 | 33.29492 | -96.80837 | 29828 ft | 460 kts | 333° |
| 2026-04-26 19:23 | 33.35538 | -96.83185 | 29823 ft | 459 kts | 333° |
| 2026-04-26 19:24 | 33.41631 | -96.85558 | 29806 ft | 462 kts | 333° |
| 2026-04-26 19:24 | 33.50770 | -96.89118 | 29818 ft | 461 kts | 334° |
| 2026-04-26 19:25 | 33.55836 | -96.91096 | 29826 ft | 461 kts | 334° |
| 2026-04-26 19:25 | 33.62929 | -96.93869 | 29834 ft | 461 kts | 334° |
| 2026-04-26 19:26 | 33.69032 | -96.96260 | 29839 ft | 461 kts | 334° |
| 2026-04-26 19:26 | 33.75133 | -96.98652 | 29803 ft | 461 kts | 334° |
| 2026-04-26 19:27 | 33.81234 | -97.01049 | 29789 ft | 461 kts | 335° |
| 2026-04-26 19:27 | 33.87328 | -97.03447 | 29788 ft | 461 kts | 335° |
| 2026-04-26 19:28 | 33.93392 | -97.05836 | 29787 ft | 462 kts | 335° |
| 2026-04-26 19:28 | 33.99492 | -97.08243 | 29792 ft | 461 kts | 335° |
| 2026-04-26 19:29 | 34.05549 | -97.10631 | 29774 ft | 444 kts | 335° |
| 2026-04-26 19:29 | 34.08417 | -97.11755 | 29771 ft | 423 kts | 334° |
| 2026-04-26 19:29 | 34.11149 | -97.12838 | 29762 ft | 405 kts | 334° |
| 2026-04-26 19:30 | 34.16473 | -97.14973 | 29781 ft | 404 kts | 334° |
| 2026-04-26 19:30 | 34.20916 | -97.16715 | 29711 ft | 407 kts | 335° |
| 2026-04-26 19:31 | 34.24630 | -97.17632 | 29227 ft | 409 kts | 341° |
| 2026-04-26 19:31 | 34.27417 | -97.18271 | 28795 ft | 406 kts | 341° |
| 2026-04-26 19:31 | 34.30170 | -97.18931 | 28329 ft | 400 kts | 341° |
| 2026-04-26 19:31 | 34.32846 | -97.19564 | 27770 ft | 383 kts | 341° |
| 2026-04-26 19:32 | 34.35413 | -97.20159 | 27182 ft | 370 kts | 341° |
| 2026-04-26 19:32 | 34.37928 | -97.20753 | 26594 ft | 366 kts | 341° |
| 2026-04-26 19:32 | 34.40408 | -97.21343 | 26029 ft | 361 kts | 341° |
| 2026-04-26 19:32 | 34.42863 | -97.21922 | 25479 ft | 358 kts | 341° |
| 2026-04-26 19:33 | 34.45269 | -97.22487 | 24950 ft | 356 kts | 342° |
| 2026-04-26 19:33 | 34.47694 | -97.23058 | 24441 ft | 354 kts | 342° |
| 2026-04-26 19:33 | 34.50108 | -97.23628 | 23942 ft | 352 kts | 342° |
| 2026-04-26 19:33 | 34.52506 | -97.24195 | 23463 ft | 351 kts | 342° |
| 2026-04-26 19:34 | 34.54894 | -97.24758 | 22903 ft | 349 kts | 342° |
| 2026-04-26 19:34 | 34.57271 | -97.25319 | 22322 ft | 346 kts | 342° |
| 2026-04-26 19:34 | 34.59626 | -97.25875 | 21769 ft | 343 kts | 342° |
| 2026-04-26 19:34 | 34.61954 | -97.26426 | 21222 ft | 340 kts | 341° |
| 2026-04-26 19:35 | 34.64269 | -97.26975 | 20677 ft | 337 kts | 341° |
| 2026-04-26 19:35 | 34.66566 | -97.27518 | 20138 ft | 334 kts | 341° |
| 2026-04-26 19:35 | 34.68810 | -97.28050 | 19622 ft | 332 kts | 341° |
| 2026-04-26 19:35 | 34.71067 | -97.28585 | 19111 ft | 330 kts | 340° |
| 2026-04-26 19:36 | 34.73308 | -97.29117 | 18595 ft | 327 kts | 340° |
| 2026-04-26 19:36 | 34.74785 | -97.29467 | 18267 ft | 325 kts | 340° |
| 2026-04-26 19:36 | 34.77744 | -97.30171 | 17545 ft | 323 kts | 340° |
| 2026-04-26 19:36 | 34.79942 | -97.30694 | 16979 ft | 321 kts | 340° |
| 2026-04-26 19:37 | 34.82129 | -97.31213 | 16411 ft | 319 kts | 340° |
| 2026-04-26 19:37 | 34.84305 | -97.31731 | 15865 ft | 318 kts | 340° |
| 2026-04-26 19:37 | 34.86473 | -97.32247 | 15329 ft | 317 kts | 341° |
| 2026-04-26 19:37 | 34.88595 | -97.32758 | 14882 ft | 312 kts | 339° |
| 2026-04-26 19:38 | 34.90546 | -97.33724 | 14735 ft | 301 kts | 322° |
| 2026-04-26 19:38 | 34.92332 | -97.35057 | 14437 ft | 298 kts | 320° |
| 2026-04-26 19:38 | 34.94076 | -97.36413 | 14152 ft | 298 kts | 320° |
| 2026-04-26 19:38 | 34.95834 | -97.37767 | 13800 ft | 298 kts | 321° |
| 2026-04-26 19:39 | 34.97591 | -97.39096 | 13423 ft | 297 kts | 321° |
| 2026-04-26 19:39 | 34.99345 | -97.40426 | 13041 ft | 296 kts | 321° |
| 2026-04-26 19:39 | 35.01090 | -97.41758 | 12576 ft | 296 kts | 321° |
| 2026-04-26 19:39 | 35.02828 | -97.43086 | 12072 ft | 294 kts | 321° |
| 2026-04-26 19:40 | 35.04562 | -97.44410 | 11547 ft | 294 kts | 321° |
| 2026-04-26 19:40 | 35.06269 | -97.45711 | 11036 ft | 292 kts | 322° |
| 2026-04-26 19:40 | 35.08153 | -97.46674 | 10505 ft | 303 kts | 344° |
| 2026-04-26 19:40 | 35.10267 | -97.46906 | 10005 ft | 306 kts | 351° |
| 2026-04-26 19:41 | 35.12393 | -97.47001 | 9458 ft | 305 kts | 353° |
| 2026-04-26 19:41 | 35.14513 | -97.47101 | 8878 ft | 303 kts | 352° |
| 2026-04-26 19:41 | 35.16619 | -97.47245 | 8354 ft | 303 kts | 352° |
| 2026-04-26 19:41 | 35.18011 | -97.47347 | 7999 ft | 304 kts | 352° |
| 2026-04-26 19:42 | 35.20854 | -97.47536 | 7285 ft | 306 kts | 353° |
| 2026-04-26 19:42 | 35.22969 | -97.47663 | 6851 ft | 304 kts | 353° |
| 2026-04-26 19:42 | 35.25019 | -97.47789 | 6737 ft | 289 kts | 353° |
| 2026-04-26 19:42 | 35.26978 | -97.47914 | 6726 ft | 285 kts | 352° |
| 2026-04-26 19:43 | 35.28938 | -97.48046 | 6724 ft | 276 kts | 352° |
| 2026-04-26 19:43 | 35.30823 | -97.48165 | 6721 ft | 270 kts | 352° |
| 2026-04-26 19:43 | 35.32716 | -97.48291 | 6453 ft | 276 kts | 352° |
| 2026-04-26 19:43 | 35.34638 | -97.48417 | 6088 ft | 276 kts | 352° |
| 2026-04-26 19:44 | 35.36539 | -97.48536 | 5711 ft | 271 kts | 353° |
| 2026-04-26 19:44 | 35.38402 | -97.48655 | 5319 ft | 266 kts | 354° |
| 2026-04-26 19:44 | 35.40240 | -97.48634 | 4938 ft | 262 kts | 357° |
| 2026-04-26 19:44 | 35.42042 | -97.48659 | 4595 ft | 253 kts | 357° |
| 2026-04-26 19:45 | 35.43786 | -97.48687 | 4291 ft | 257 kts | 358° |
| 2026-04-26 19:45 | 35.45526 | -97.48689 | 3979 ft | 254 kts | 359° |
| 2026-04-26 19:45 | 35.47272 | -97.48683 | 3756 ft | 248 kts | 359° |
| 2026-04-26 19:45 | 35.49019 | -97.48680 | 3756 ft | 254 kts | 359° |
| 2026-04-26 19:46 | 35.50774 | -97.48682 | 3739 ft | 249 kts | 360° |
| 2026-04-26 19:46 | 35.52517 | -97.48683 | 3746 ft | 253 kts | 359° |
| 2026-04-26 19:46 | 35.54259 | -97.48682 | 3727 ft | 251 kts | 359° |
| 2026-04-26 19:46 | 35.56006 | -97.48683 | 3725 ft | 251 kts | 359° |
| 2026-04-26 19:47 | 35.57753 | -97.48682 | 3723 ft | 250 kts | 359° |
| 2026-04-26 19:47 | 35.58914 | -97.48683 | 3762 ft | 247 kts | 360° |
| 2026-04-26 19:47 | 35.61225 | -97.48773 | 3915 ft | 242 kts | 348° |
| 2026-04-26 19:47 | 35.62686 | -97.49443 | 3931 ft | 216 kts | 323° |
| 2026-04-26 19:48 | 35.63696 | -97.50643 | 3942 ft | 192 kts | 296° |
| 2026-04-26 19:48 | 35.64149 | -97.52075 | 3959 ft | 173 kts | 276° |
| 2026-04-26 19:48 | 35.64413 | -97.53479 | 3962 ft | 164 kts | 275° |
| 2026-04-26 19:48 | 35.64625 | -97.54808 | 3904 ft | 150 kts | 263° |
| 2026-04-26 19:49 | 35.64366 | -97.55912 | 3922 ft | 126 kts | 229° |
| 2026-04-26 19:49 | 35.63710 | -97.56503 | 3937 ft | 113 kts | 206° |
| 2026-04-26 19:49 | 35.63037 | -97.56956 | 3966 ft | 114 kts | 218° |
| 2026-04-26 19:49 | 35.62389 | -97.57715 | 3748 ft | 142 kts | 226° |
| 2026-04-26 19:50 | 35.61751 | -97.58537 | 3917 ft | 118 kts | 214° |
| 2026-04-26 19:50 | 35.61028 | -97.59106 | 3429 ft | 129 kts | 203° |
| 2026-04-26 19:50 | 35.60299 | -97.59597 | 3342 ft | 115 kts | 203° |
| 2026-04-26 19:50 | 35.59526 | -97.60024 | 2937 ft | 126 kts | 197° |
| 2026-04-26 19:51 | 35.58694 | -97.60273 | 2734 ft | 123 kts | 191° |
| 2026-04-26 19:51 | 35.57802 | -97.60507 | 2495 ft | 135 kts | 193° |
| 2026-04-26 19:51 | 35.56862 | -97.60717 | 2566 ft | 137 kts | 188° |
| 2026-04-26 19:51 | 35.55882 | -97.60831 | 2547 ft | 146 kts | 184° |
| 2026-04-26 19:52 | 35.54856 | -97.60806 | 2701 ft | 149 kts | 180° |
| 2026-04-26 19:52 | 35.53821 | -97.60784 | 2924 ft | 147 kts | 178° |
| 2026-04-26 19:52 | 35.52809 | -97.60736 | 3067 ft | 145 kts | 180° |
| 2026-04-26 19:52 | 35.51798 | -97.60619 | 3051 ft | 152 kts | 174° |
| 2026-04-26 19:53 | 35.50725 | -97.60530 | 2948 ft | 160 kts | 179° |
| 2026-04-26 19:53 | 35.49577 | -97.60547 | 2938 ft | 167 kts | 182° |
| 2026-04-26 19:53 | 35.48399 | -97.60591 | 2960 ft | 172 kts | 180° |
| 2026-04-26 19:53 | 35.47183 | -97.60587 | 2965 ft | 177 kts | 180° |
| 2026-04-26 19:54 | 35.45998 | -97.60562 | 3007 ft | 160 kts | 178° |
| 2026-04-26 19:54 | 35.44944 | -97.60535 | 2722 ft | 145 kts | 179° |
| 2026-04-26 19:54 | 35.43964 | -97.60572 | 2394 ft | 138 kts | 181° |
| 2026-04-26 19:54 | 35.43030 | -97.60587 | 2054 ft | 131 kts | 178° |
| 2026-04-26 19:55 | 35.42143 | -97.60586 | 1733 ft | 122 kts | 182° |
| 2026-04-26 19:55 | 35.41339 | -97.60584 | 1468 ft | 112 kts | 187° |
| 2026-04-26 19:55 | 35.40592 | -97.60597 | 1314 ft | 102 kts | 184° |
| 2026-04-26 19:55 | 35.39943 | -97.60574 | 1300 ft | 84 kts | 181° |
| 2026-04-26 19:56 | 35.39457 | -97.60571 | 1294 ft | 56 kts | 180° |
| 2026-04-26 19:56 | 35.39156 | -97.60547 | 1297 ft | 32 kts | 185° |
| 2026-04-26 19:56 | 35.39005 | -97.60528 | 1302 ft | 15 kts | 138° |
| 2026-04-26 19:56 | 35.38979 | -97.60449 | 1302 ft | 9 kts | 94° |
| 2026-04-26 19:57 | 35.38983 | -97.60382 | 1300 ft | 1 kts | 70° |
| 2026-04-26 19:57 | 35.38984 | -97.60380 | 1300 ft | 1 kts | 66° |
| 2026-04-26 19:57 | 35.38986 | -97.60377 | 1300 ft | 3 kts | 57° |
| 2026-04-26 19:57 | 35.38999 | -97.60350 | 1300 ft | 0 kts | 58° |
| 2026-04-26 19:58 | 35.39001 | -97.60350 | 1300 ft | 0 kts | 37° |
| 2026-04-26 19:58 | 35.39007 | -97.60348 | 1300 ft | 3 kts | 14° |
| 2026-04-26 19:58 | 35.39045 | -97.60351 | 1300 ft | 10 kts | 354° |
| 2026-04-26 19:59 | 35.39148 | -97.60362 | 1300 ft | 20 kts | 356° |
| 2026-04-26 19:59 | 35.39324 | -97.60376 | 1295 ft | 31 kts | 356° |
| 2026-04-26 19:59 | 35.39521 | -97.60384 | 1292 ft | 23 kts | 358° |
| 2026-04-26 19:59 | 35.39601 | -97.60318 | 1292 ft | 16 kts | 117° |
| 2026-04-26 20:00 | 35.39548 | -97.60225 | 1293 ft | 8 kts | 107° |
| 2026-04-26 20:00 | 35.39528 | -97.60140 | 1293 ft | 15 kts | 110° |
| 2026-04-26 20:00 | 35.39449 | -97.60008 | 1297 ft | 22 kts | 128° |
| 2026-04-26 20:00 | 35.39406 | -97.59853 | 1299 ft | 18 kts | 92° |
| 2026-04-26 20:01 | 35.39406 | -97.59718 | 1301 ft | 8 kts | 88° |
| 2026-04-26 20:01 | 35.39422 | -97.59676 | 1301 ft | 6 kts | 51° |
| 2026-04-26 20:01 | 35.39437 | -97.59665 | 1301 ft | 3 kts | 19° |
| 2026-04-26 20:01 | 35.39445 | -97.59662 | 1302 ft | 0 kts | 18° |